Time;durP1;ratioP1;P1;durP2;ratioP2;P2;SDS_P1;SDS_P2;PMS_P1;PMS_P2;Temp;Humidity;BMP_temperature;BMP_pressure;BME280_temperature;BME280_humidity;BME280_pressure;Samples;Min_cycle;Max_cycle;Signal;HPM_P1;HPM_P2
2024/02/05 20:09:28;;;;;;;;;;;;;;;10.01;68.07;98962.42;106573;1252;62771;-86
2024/02/05 20:12:03;;;;;;;;;;;;;;;10.10;66.48;98963.45;106757;1252;61312;-88
2024/02/05 20:14:42;;;;;;;;;;;;;;;10.12;67.13;98957.71;107159;1257;77703;-88
2024/02/05 20:17:10;;;;;;;;;;;;;;;10.02;68.56;98965.84;106527;1257;70972;-87
2024/02/05 20:19:44;;;;;;;;;;;;;;;9.87;70.69;98964.52;106587;1253;74605;-88
2024/02/05 20:22:17;;;;;;;;;;;;;;;9.91;70.61;98967.88;106649;1257;61152;-88
2024/02/05 20:24:52;;;;;;;;;;;;;;;10.01;69.55;98975.25;106648;1254;61188;-87
2024/02/05 20:27:21;;;;;;;;;;;;;;;10.08;70.27;98981.36;106806;1257;76998;-89
2024/02/05 20:29:57;;;;;;;;;;;;;;;10.07;68.68;98992.20;106782;1253;70731;-89
2024/02/05 20:32:32;;;;;;;;;;;;;;;10.00;67.30;98995.27;109282;1253;73769;-87
2024/02/05 20:35:07;;;;;;;;;;;;;;;10.11;68.17;98997.02;109284;1252;61573;-88
2024/02/05 20:37:37;;;;;;;;;;;;;;;10.17;68.19;98990.95;109340;1252;59383;-85
2024/02/05 20:40:12;;;;;;;;;;;;;;;10.12;68.07;98996.27;107839;1253;74585;-89
2024/02/05 20:42:48;;;;;;;;;;;;;;;10.14;67.59;99007.73;106832;1252;70842;-87
2024/02/05 20:45:22;;;;;;;;;;;;;;;10.17;66.81;99018.31;106664;1256;73688;-87
2024/02/05 20:47:55;;;;;;;;;;;;;;;10.16;67.26;99022.80;106724;1257;61372;-87
2024/02/05 20:50:32;;;;;;;;;;;;;;;10.14;66.74;99036.17;107055;1253;62016;-87
2024/02/05 20:53:02;;;;;;;;;;;;;;;10.16;66.12;99046.78;106792;1252;76675;-86
2024/02/05 20:55:38;;;;;;;;;;;;;;;10.19;66.56;99049.23;106572;1253;68408;-86
2024/02/05 20:58:10;;;;;;;;;;;;;;;10.18;66.46;99058.45;106625;1253;73770;-86
2024/02/05 21:00:49;;;;;;;;;;;;;;;10.18;67.10;99062.25;106675;1253;63615;-86
2024/02/05 21:03:25;;;;;;;;;;;;;;;10.15;66.00;99068.81;106497;1252;61692;-86
2024/02/05 21:05:59;;;;;;;;;;;;;;;10.06;65.68;99072.78;106769;1252;73700;-86
2024/02/05 21:08:27;;;;;;;;;;;;;;;10.05;65.68;99077.44;106523;1253;70758;-88
2024/02/05 21:11:03;;;;;;;;;;;;;;;9.98;67.04;99081.70;106597;1253;72131;-90
2024/02/05 21:13:39;;;;;;;;;;;;;;;9.87;66.54;99085.89;107255;1252;59479;-86
2024/02/05 21:16:07;;;;;;;;;;;;;;;9.86;67.20;99098.02;106540;1253;61323;-86
2024/02/05 21:18:40;;;;;;;;;;;;;;;9.85;68.36;99103.20;106597;1253;75567;-88
2024/02/05 21:21:16;;;;;;;;;;;;;;;9.91;67.93;99107.46;106655;1252;71063;-87
2024/02/05 21:23:51;;;;;;;;;;;;;;;9.91;66.85;99117.77;106757;1254;71403;-90
2024/02/05 21:26:19;;;;;;;;;;;;;;;9.86;66.87;99126.45;106744;1253;61262;-88
2024/02/05 21:28:54;;;;;;;;;;;;;;;9.66;68.46;99137.01;106786;1253;61364;-88
2024/02/05 21:31:29;;;;;;;;;;;;;;;9.31;70.81;99145.27;107370;1252;76143;-88
2024/02/05 21:34:03;;;;;;;;;;;;;;;9.16;71.33;99150.90;107674;1253;68441;-87
2024/02/05 21:36:31;;;;;;;;;;;;;;;9.29;70.40;99152.77;107078;1253;71072;-88
2024/02/05 21:39:05;;;;;;;;;;;;;;;9.37;70.84;99155.95;106669;1253;61234;-88
2024/02/05 21:41:38;;;;;;;;;;;;;;;9.37;69.64;99156.00;106529;1252;59873;-88
2024/02/05 21:44:12;;;;;;;;;;;;;;;9.40;69.56;99164.52;106778;1252;74814;-89
2024/02/05 21:46:40;;;;;;;;;;;;;;;9.41;68.71;99180.17;106494;1253;68672;-88
2024/02/05 21:49:13;;;;;;;;;;;;;;;9.37;69.20;99194.02;106579;1257;71794;-87
2024/02/05 21:51:49;;;;;;;;;;;;;;;9.29;69.40;99199.39;106574;1253;61293;-88
2024/02/05 21:54:23;;;;;;;;;;;;;;;9.17;71.38;99203.15;106710;1253;61125;-88
2024/02/05 21:56:51;;;;;;;;;;;;;;;9.29;70.16;99203.52;106524;1255;74636;-89
2024/02/05 21:59:25;;;;;;;;;;;;;;;9.21;70.97;99207.73;106778;1254;67528;-88
2024/02/05 22:01:58;;;;;;;;;;;;;;;9.27;70.36;99200.58;106470;1253;71875;-90
2024/02/05 22:04:26;;;;;;;;;;;;;;;9.34;69.66;99208.08;106790;1253;61215;-88
2024/02/05 22:07:00;;;;;;;;;;;;;;;9.31;69.56;99220.71;106845;1253;61286;-89
2024/02/05 22:09:34;;;;;;;;;;;;;;;9.33;70.73;99222.44;106567;1252;73413;-89
2024/02/05 22:12:08;;;;;;;;;;;;;;;9.45;69.51;99228.80;106670;1252;67127;-88
2024/02/05 22:14:36;;;;;;;;;;;;;;;9.42;67.23;99242.28;106460;1253;72673;-88
2024/02/05 22:17:10;;;;;;;;;;;;;;;9.31;66.89;99245.80;106521;1258;61286;-88
2024/02/05 22:19:43;;;;;;;;;;;;;;;9.35;68.90;99252.38;106765;1252;61361;-88
2024/02/05 22:22:17;;;;;;;;;;;;;;;9.34;68.31;99251.90;106714;1253;73339;-89
2024/02/05 22:24:45;;;;;;;;;;;;;;;9.40;67.40;99254.13;106815;1253;67539;-91
2024/02/05 22:27:19;;;;;;;;;;;;;;;9.39;67.88;99262.77;106835;1255;72669;-88
2024/02/05 22:29:53;;;;;;;;;;;;;;;9.47;67.54;99263.89;106765;1255;61358;-90
2024/02/05 22:32:30;;;;;;;;;;;;;;;9.42;67.78;99274.08;106633;1252;61270;-88
2024/02/05 22:34:58;;;;;;;;;;;;;;;9.40;67.23;99274.91;106522;1256;73868;-88
2024/02/05 22:37:32;;;;;;;;;;;;;;;9.44;66.33;99273.96;106602;1257;68455;-87
2024/02/05 22:40:09;;;;;;;;;;;;;;;9.47;66.94;99278.18;106712;1253;72444;-88
2024/02/05 22:42:37;;;;;;;;;;;;;;;9.42;67.73;99278.81;106500;1252;61363;-87
2024/02/05 22:45:11;;;;;;;;;;;;;;;9.29;67.46;99279.77;106561;1253;61112;-88
2024/02/05 22:47:45;;;;;;;;;;;;;;;9.20;65.57;99279.25;106579;1253;73734;-89
2024/02/05 22:50:19;;;;;;;;;;;;;;;9.06;66.47;99287.38;107153;1257;67580;-90
2024/02/05 22:52:47;;;;;;;;;;;;;;;8.99;67.77;99292.56;106514;1253;72617;-90
2024/02/05 22:55:21;;;;;;;;;;;;;;;8.95;67.88;99293.66;106929;1253;61344;-92
2024/02/05 22:57:55;;;;;;;;;;;;;;;8.91;67.81;99301.57;106560;1256;61263;-89
2024/02/05 23:00:32;;;;;;;;;;;;;;;8.88;68.26;99308.06;106848;1251;73333;-89
2024/02/05 23:03:00;;;;;;;;;;;;;;;8.94;67.77;99312.53;106618;1256;67583;-89
2024/02/05 23:05:35;;;;;;;;;;;;;;;9.03;68.28;99312.72;106580;1258;71422;-90
2024/02/05 23:08:10;;;;;;;;;;;;;;;8.98;68.15;99320.43;106809;1254;61373;-88
2024/02/05 23:10:43;;;;;;;;;;;;;;;8.99;67.53;99329.30;106351;1253;61366;-88
2024/02/05 23:13:17;;;;;;;;;;;;;;;8.82;69.11;99330.75;107305;1252;74552;-89
2024/02/05 23:15:51;;;;;;;;;;;;;;;8.84;68.88;99330.63;107034;1258;67104;-89
2024/02/05 23:18:25;;;;;;;;;;;;;;;8.85;68.72;99335.66;106719;1253;72714;-89
2024/02/05 23:20:59;;;;;;;;;;;;;;;8.67;69.88;99331.84;106530;1253;61452;-89
2024/02/05 23:23:33;;;;;;;;;;;;;;;8.66;69.88;99338.92;106852;1253;61089;-89
2024/02/05 23:26:07;;;;;;;;;;;;;;;8.74;69.87;99344.49;106809;1253;72471;-88
2024/02/05 23:28:40;;;;;;;;;;;;;;;8.73;68.86;99346.73;104630;1253;2642886;-89
2024/02/05 23:31:14;;;;;;;;;;;;;;;8.47;69.64;99344.45;106449;1254;72877;-87
2024/02/05 23:33:50;;;;;;;;;;;;;;;8.41;70.51;99347.73;106369;1253;61366;-89
2024/02/05 23:36:25;;;;;;;;;;;;;;;8.38;70.69;99356.77;106736;1256;61278;-89
2024/02/05 23:38:59;;;;;;;;;;;;;;;8.15;72.23;99362.34;106579;1257;73377;-90
2024/02/05 23:41:34;;;;;;;;;;;;;;;8.10;72.34;99368.94;106546;1253;68357;-89
2024/02/05 23:44:08;;;;;;;;;;;;;;;8.15;71.96;99369.85;106710;1253;72710;-90
2024/02/05 23:46:42;;;;;;;;;;;;;;;8.27;71.77;99375.98;106687;1253;61245;-89
2024/02/05 23:49:16;;;;;;;;;;;;;;;8.25;72.17;99379.77;106603;1257;61322;-89
2024/02/05 23:51:50;;;;;;;;;;;;;;;8.25;71.98;99386.72;106489;1253;74717;-89
2024/02/05 23:54:24;;;;;;;;;;;;;;;8.26;72.26;99396.30;106682;1252;67091;-88
